Last 48 Hours

Top of 15 - 9,047ft

15 Minute Data | America/Los_Angeles
as of 9/1/26 8:09 PM PDT
Date & Time Temp (°F) WindChill (°F) RH (%) Dew Pt (°F) Wet Bulb (°F) Wind Dir (°) Wind Spd (mph) Wind Gust (mph) Wind Gst Dir (°) Daily Min Temp (°F) Daily Max Temp (°F) Daily Max Wind (mph)
9/1/26 - 2000 40.4 33.5 62 28.3 35.6 SW | 221 11.6 29.9 WSW | 243 40.3 54.0 36.0
9/1/26 - 1945 40.7 35.7 60 27.9 35.7 SW | 225 7.3 19.4 S | 189 40.4 54.0 36.0
9/1/26 - 1930 41.2 35.5 58 27.5 35.8 SW | 221 9.2 26.1 SW | 214 40.7 54.0 36.0
9/1/26 - 1915 41.9 36.7 56 27.2 36.1 SW | 224 8.3 22.9 WSW | 251 40.7 54.0 36.0
9/1/26 - 1900 42.6 37.9 52 26.4 36.3 SW | 234 7.7 21.7 SW | 217 40.7 54.0 36.0
9/1/26 - 1845 43.4 39.5 49 25.4 36.4 SW | 218 6.4 24.4 S | 191 40.7 54.0 36.0
9/1/26 - 1830 43.9 39.2 48 25.3 36.7 SW | 226 8.5 25.4 W | 261 40.7 54.0 36.0
9/1/26 - 1815 44.5 40.2 46 24.9 36.8 WSW | 238 7.6 21.1 WSW | 255 40.7 54.0 36.0
9/1/26 - 1800 45.0 41.1 44 24.5 37.0 SW | 226 7.0 19.7 WSW | 256 40.7 54.0 36.0
9/1/26 - 1745 46.2 42.1 42 24.5 37.6 SW | 220 8.0 24.2 WSW | 241 40.7 54.0 36.0
9/1/26 - 1730 46.6 43.3 41 24.1 37.8 SW | 219 6.5 25.4 SW | 225 40.7 54.0 36.0
9/1/26 - 1715 47.0 44.3 41 24.5 38.1 WSW | 242 5.7 16.6 W | 260 40.7 54.0 36.0
9/1/26 - 1700 47.9 45.0 39 24.4 38.5 SW | 234 6.3 20.5 WSW | 254 40.7 54.0 36.0
9/1/26 - 1645 48.5 46.4 39 24.4 38.9 SW | 222 5.1 22.9 SSW | 201 40.7 54.0 36.0
9/1/26 - 1630 49.4 46.1 38 24.6 39.4 SW | 228 7.9 21.3 SSW | 199 40.7 54.0 36.0
9/1/26 - 1615 49.7 47.5 36 23.8 39.3 SSW | 206 5.7 19.6 SW | 220 40.7 54.0 36.0
9/1/26 - 1600 50.5 - 35 23.6 39.6 SSW | 211 4.8 16.6 SW | 215 40.7 54.0 36.0
9/1/26 - 1545 50.8 - 34 23.5 39.8 SW | 215 7.2 21.5 S | 183 40.7 54.0 36.0
9/1/26 - 1530 51.2 - 33 23.2 39.9 SSW | 209 8.9 31.9 WSW | 257 40.7 54.0 36.0
9/1/26 - 1515 50.9 - 33 22.9 39.6 SSW | 212 9.2 36.0 SW | 228 40.7 54.0 36.0
9/1/26 - 1500 51.2 - 32 22.5 39.7 SSW | 212 8.6 25.8 WSW | 240 40.7 54.0 32.2
9/1/26 - 1445 52.3 - 30 21.7 40.0 SW | 216 8.9 30.7 SW | 216 40.7 54.0 32.2
9/1/26 - 1430 51.6 - 32 22.5 39.9 SW | 224 11.0 27.8 SW | 234 40.7 53.9 32.2
9/1/26 - 1415 50.1 - 34 22.9 39.2 SW | 225 9.3 26.5 SW | 229 40.7 53.9 32.2
9/1/26 - 1400 50.5 - 34 23.3 39.6 SSW | 213 8.6 24.9 SSW | 207 40.7 53.9 32.2
9/1/26 - 1345 51.2 - 33 23.0 39.8 SSW | 203 7.1 23.0 SSE | 166 40.7 53.9 32.2
9/1/26 - 1330 50.4 - 33 22.4 39.3 SSW | 205 6.7 25.6 SSW | 208 40.7 53.9 32.2
9/1/26 - 1315 50.7 - 33 23.0 39.6 SSW | 212 8.4 26.7 WSW | 244 40.7 53.9 32.2
9/1/26 - 1300 52.0 - 33 23.8 40.5 SSW | 204 7.4 24.6 SSW | 202 40.7 53.9 32.2
9/1/26 - 1245 51.3 - 34 24.0 40.2 SSW | 210 8.0 20.8 WSW | 243 40.7 53.7 32.2
9/1/26 - 1230 51.4 - 33 23.2 40.0 SSW | 205 8.3 22.7 S | 177 40.7 53.7 32.2
9/1/26 - 1215 51.6 - 31 22.2 39.8 S | 191 6.9 22.8 SSW | 194 40.7 53.7 32.2
9/1/26 - 1200 51.8 - 30 21.5 39.7 S | 185 6.3 19.0 SSE | 167 40.7 53.4 32.2
9/1/26 - 1145 50.4 - 32 21.5 39.0 SSW | 202 7.1 22.7 SSW | 202 40.7 52.6 32.2
9/1/26 - 1130 51.0 - 33 22.7 39.6 SW | 214 7.2 18.2 SSE | 158 40.7 52.2 32.2
9/1/26 - 1115 50.0 46.9 35 23.6 39.4 SSW | 204 7.6 19.9 SSW | 211 40.7 51.3 32.2
9/1/26 - 1100 50.0 48.6 36 23.8 39.4 SSW | 204 4.4 13.6 SW | 216 40.7 51.3 32.2
9/1/26 - 1045 49.5 47.7 36 23.8 39.2 SW | 226 5.0 15.8 SW | 233 40.7 51.1 32.2
9/1/26 - 1030 48.5 45.6 38 23.9 38.7 SW | 216 6.5 19.5 SW | 226 40.7 49.8 32.2
9/1/26 - 1015 48.0 44.4 39 24.2 38.5 SW | 227 7.7 21.5 WSW | 242 40.7 49.8 32.2
9/1/26 - 1000 47.8 43.4 39 24.2 38.4 SW | 225 9.6 19.5 WSW | 248 40.7 48.8 32.2
9/1/26 - 0945 47.1 43.2 41 24.5 38.1 SW | 216 8.0 21.7 WSW | 256 40.7 48.5 32.2
9/1/26 - 0930 46.9 43.4 42 24.8 38.1 SW | 221 7.0 21.4 SW | 225 40.7 48.5 32.2
9/1/26 - 0915 46.2 41.8 46 26.4 38.3 SW | 231 9.0 19.4 WSW | 254 40.7 46.9 32.2
9/1/26 - 0900 45.6 41.4 47 26.5 37.9 SW | 227 8.0 18.4 WSW | 243 40.7 46.1 32.2
9/1/26 - 0845 45.0 41.2 49 27.2 37.8 SW | 229 6.9 20.1 WSW | 241 40.7 46.1 32.2
9/1/26 - 0830 44.1 39.8 53 28.1 37.6 SW | 226 7.4 18.1 SSW | 198 40.7 46.1 32.2
9/1/26 - 0815 42.9 37.6 60 29.9 37.6 SW | 225 9.0 25.5 WSW | 251 40.7 46.1 32.2
9/1/26 - 0800 41.7 35.9 66 31.2 37.4 SW | 230 9.6 23.8 WSW | 247 40.7 46.1 32.2
9/1/26 - 0745 41.4 36.2 66 31.0 37.2 SW | 227 8.4 25.9 SSW | 203 40.7 46.1 32.2
9/1/26 - 0730 41.4 37.9 65 30.4 37.0 SSW | 210 5.3 24.2 S | 191 40.7 46.1 32.2
9/1/26 - 0715 40.8 36.7 68 30.9 36.8 SSW | 201 6.1 18.5 S | 190 40.7 46.1 32.2
9/1/26 - 0700 41.1 39.5 65 30.1 36.7 SSW | 208 3.1 14.8 SW | 235 40.7 46.1 32.2
9/1/26 - 0645 41.0 39.1 64 29.6 36.5 SSW | 204 3.4 15.1 SSW | 199 40.7 46.1 32.2
9/1/26 - 0630 41.4 39.7 61 28.9 36.4 SW | 225 3.3 12.0 W | 271 41.3 46.1 32.2
9/1/26 - 0615 41.7 - 60 28.7 36.5 WSW | 244 2.5 10.8 W | 267 41.5 46.1 32.2
9/1/26 - 0600 42.0 - 58 28.4 36.6 ESE | 112 2.0 7.5 NE | 46 41.8 46.1 32.2
9/1/26 - 0545 42.2 - 58 28.3 36.6 NE | 48 1.8 5.8 NE | 55 41.8 46.1 32.2
9/1/26 - 0530 42.5 - 55 27.6 36.6 WSW | 250 2.4 11.7 SW | 229 42.1 46.1 32.2
9/1/26 - 0515 42.9 - 53 26.9 36.6 WSW | 245 1.5 6.6 SW | 225 42.4 46.1 32.2
9/1/26 - 0500 42.9 40.5 54 27.4 36.8 SW | 228 4.2 14.3 SW | 224 42.8 46.1 32.2
9/1/26 - 0445 43.5 42.0 48 25.4 36.5 SSW | 204 3.4 12.3 SW | 226 43.2 46.1 32.2
9/1/26 - 0430 43.4 41.1 51 26.5 36.8 SSW | 212 4.3 20.4 W | 260 43.3 46.1 32.2
9/1/26 - 0415 43.5 40.0 53 27.4 37.1 SW | 223 5.9 15.2 WSW | 241 43.3 46.1 32.2
9/1/26 - 0400 43.8 37.9 50 26.3 36.9 SW | 233 11.3 27.7 WSW | 246 43.5 46.1 32.2
9/1/26 - 0345 44.1 38.6 50 26.6 37.1 SW | 231 10.3 29.7 WSW | 245 43.7 46.1 32.2
9/1/26 - 0330 44.8 39.6 44 23.9 36.7 SW | 223 9.8 23.4 WSW | 238 44.4 46.1 32.2
9/1/26 - 0315 45.0 40.2 42 23.4 36.7 SW | 220 9.0 28.6 SSW | 206 44.4 46.1 32.2
9/1/26 - 0300 44.6 38.0 51 27.6 37.8 SW | 226 13.8 29.2 SW | 222 44.4 46.1 32.2
9/1/26 - 0245 44.7 38.7 53 28.5 38.1 SW | 224 12.3 25.9 W | 262 44.4 46.1 32.2
9/1/26 - 0230 45.0 39.9 53 28.9 38.4 SW | 218 9.9 22.1 SW | 236 44.4 46.1 32.2
9/1/26 - 0215 44.8 39.0 56 30.2 38.8 SW | 220 11.6 25.4 WSW | 248 44.4 46.1 32.2
9/1/26 - 0200 45.5 39.7 58 31.5 39.6 SW | 215 12.2 26.4 SW | 236 45.2 46.1 32.2
9/1/26 - 0145 45.9 40.2 59 32.4 40.1 SW | 217 12.2 31.0 WSW | 255 45.4 46.1 32.2
9/1/26 - 0130 45.7 39.6 61 33.0 40.3 SW | 221 13.5 30.9 SSW | 203 45.4 46.1 32.2
9/1/26 - 0115 45.7 39.4 62 33.3 40.4 SW | 222 14.2 32.2 SW | 221 45.4 46.1 32.2
9/1/26 - 0100 45.8 39.8 62 33.7 40.6 SW | 231 13.2 28.0 WSW | 242 45.7 62.3 36.0
9/1/26 - 0045 46.3 43.3 62 33.9 40.9 SSW | 206 6.0 17.8 SSW | 203 45.9 62.3 36.0
9/1/26 - 0030 46.9 43.6 61 34.1 41.3 SSW | 210 6.7 18.0 SW | 221 46.3 62.3 36.0
9/1/26 - 0015 47.7 46.0 59 34.0 41.7 SSW | 207 4.3 14.3 SW | 232 46.3 62.3 36.0
9/1/26 - 0000 47.8 45.8 59 34.3 41.8 SSW | 206 4.6 19.1 SSW | 205 46.3 62.3 36.0
8/31/26 - 2345 48.6 47.5 57 34.2 42.2 SSW | 200 3.7 12.5 WSW | 255 46.3 62.3 36.0
8/31/26 - 2330 49.3 47.5 55 33.8 42.4 SSW | 210 4.8 16.3 SSW | 202 46.3 62.3 36.0
8/31/26 - 2315 49.5 47.6 54 33.5 42.4 SSW | 210 5.1 14.0 WSW | 254 46.3 62.3 36.0
8/31/26 - 2300 49.1 46.0 55 33.8 42.3 SW | 220 7.1 23.4 WSW | 246 46.3 62.3 36.0
8/31/26 - 2245 49.3 45.9 53 33.1 42.2 SW | 221 8.1 22.1 WSW | 244 46.3 62.3 36.0
8/31/26 - 2230 51.3 - 43 29.4 41.8 SSW | 212 3.9 17.4 W | 277 46.3 62.3 36.0
8/31/26 - 2215 50.9 - 43 29.5 41.6 SSW | 210 6.1 21.5 WSW | 254 46.3 62.3 36.0
8/31/26 - 2200 50.0 47.0 49 31.7 41.9 SW | 220 7.3 19.8 WSW | 240 46.3 62.3 36.0
8/31/26 - 2145 48.8 45.3 56 33.7 42.1 SSW | 211 7.9 21.1 WSW | 255 46.3 62.3 36.0
8/31/26 - 2130 49.0 44.5 56 34.2 42.5 SSW | 212 11.1 22.2 SSW | 210 46.3 62.3 36.0
8/31/26 - 2115 49.5 44.9 55 34.1 42.6 SW | 220 11.8 28.4 SW | 223 46.3 62.3 36.0
8/31/26 - 2100 48.7 44.8 56 33.7 42.1 SSW | 213 9.0 26.1 SW | 224 46.3 62.3 36.0
8/31/26 - 2045 46.7 42.2 59 33.3 40.9 SW | 215 9.3 23.0 SW | 227 46.3 62.3 36.0
8/31/26 - 2030 46.5 40.6 60 33.5 40.9 SW | 218 13.4 28.9 SW | 230 46.4 62.3 36.0
8/31/26 - 2015 46.8 40.3 61 33.9 41.2 SW | 223 16.3 31.9 SW | 221 46.7 62.3 36.0
8/31/26 - 2000 47.3 40.6 60 34.2 41.6 SW | 226 17.2 32.2 SW | 215 46.9 62.3 36.0
8/31/26 - 1945 47.7 41.1 60 34.5 41.9 SW | 228 17.3 36.0 WSW | 241 47.4 62.3 36.0
8/31/26 - 1930 48.3 42.1 59 34.7 42.3 SW | 230 16.6 29.8 WSW | 248 48.0 62.3 31.0
8/31/26 - 1915 48.8 43.3 59 35.3 42.8 SW | 226 14.4 30.2 SW | 220 48.6 62.3 31.0
8/31/26 - 1900 49.0 44.0 59 35.3 42.9 SW | 221 13.0 26.2 SW | 222 48.9 62.3 31.0
8/31/26 - 1845 49.8 45.4 57 35.4 43.3 SSW | 212 11.4 22.8 WSW | 246 49.0 62.3 31.0
8/31/26 - 1830 50.5 - 57 35.7 43.8 SW | 217 11.6 23.6 WSW | 245 49.0 62.3 31.0
8/31/26 - 1815 50.7 - 56 35.8 43.9 SW | 226 12.9 31.0 WSW | 256 49.0 62.3 31.0
8/31/26 - 1800 51.2 - 56 35.9 44.2 SW | 225 13.0 27.5 SW | 230 49.0 62.3 30.0
8/31/26 - 1745 52.2 - 53 35.8 44.6 SW | 227 13.5 30.0 SW | 216 49.0 62.3 30.0
8/31/26 - 1730 52.7 - 53 35.9 44.9 SW | 226 12.3 28.2 SW | 217 49.0 62.3 28.2
8/31/26 - 1715 53.2 - 51 35.8 45.1 SW | 228 9.6 20.9 WSW | 248 49.0 62.3 21.4
8/31/26 - 1700 53.9 - 50 35.9 45.4 SW | 229 8.8 19.9 SSW | 206 49.0 62.3 21.4
8/31/26 - 1645 54.4 - 49 35.7 45.6 SW | 218 7.1 17.0 WSW | 251 49.0 62.3 21.4
8/31/26 - 1630 55.2 - 46 34.9 45.6 SW | 222 6.8 16.9 S | 187 49.0 62.3 21.4
8/31/26 - 1615 55.8 - 45 34.8 45.8 SW | 217 5.5 16.6 SW | 230 49.0 62.3 21.4
8/31/26 - 1600 56.0 - 44 34.2 45.7 SSW | 211 4.4 15.3 SW | 230 49.0 62.3 21.4
8/31/26 - 1545 57.0 - 42 34.1 46.1 SSW | 193 5.5 15.5 SSW | 196 49.0 62.3 21.4
8/31/26 - 1530 57.3 - 41 33.7 46.1 SSW | 202 6.1 19.6 SSW | 205 49.0 62.3 21.4
8/31/26 - 1515 57.6 - 40 33.3 46.1 SW | 222 5.3 20.4 SSW | 204 49.0 62.3 21.4
8/31/26 - 1500 58.5 - 38 32.7 46.3 SW | 227 6.2 18.1 SW | 230 49.0 62.3 21.4
8/31/26 - 1445 58.4 - 37 32.5 46.1 SSW | 195 6.0 16.3 SSE | 162 49.0 62.3 21.4
8/31/26 - 1430 59.8 - 35 31.9 46.5 SSW | 210 6.7 15.8 SW | 226 49.0 62.3 21.4
8/31/26 - 1415 58.9 - 34 30.8 45.8 SW | 227 7.8 20.3 SW | 233 49.0 62.3 21.4
8/31/26 - 1400 58.4 - 33 29.4 45.1 SSW | 211 7.6 18.9 SW | 235 49.0 62.3 21.4
8/31/26 - 1345 58.6 - 32 28.6 44.9 SSW | 211 6.6 16.8 SSW | 205 49.0 62.3 21.4
8/31/26 - 1330 58.4 - 30 27.2 44.4 SW | 226 8.2 17.8 WSW | 238 49.0 62.3 21.4
8/31/26 - 1315 58.9 - 28 26.0 44.3 SSW | 201 5.6 20.2 S | 188 49.0 62.3 21.4
8/31/26 - 1300 58.4 - 29 26.4 44.2 SSW | 200 6.2 21.4 SSW | 196 49.0 62.3 21.4
8/31/26 - 1245 57.8 - 30 26.8 44.0 SW | 217 6.5 19.2 SW | 216 49.0 62.3 19.2
8/31/26 - 1230 59.3 - 28 26.1 44.4 SW | 221 4.8 17.3 WSW | 242 49.0 62.3 17.3
8/31/26 - 1215 58.9 - 28 26.1 44.3 S | 188 3.2 11.5 SW | 225 49.0 62.3 15.6
8/31/26 - 1200 57.9 - 29 25.7 43.8 WNW | 282 4.6 15.6 WNW | 292 49.0 62.3 15.6
8/31/26 - 1145 57.1 - 29 25.0 43.2 WSW | 256 4.8 12.1 W | 279 49.0 62.3 15.3
8/31/26 - 1130 58.0 - 27 24.2 43.4 SW | 229 3.6 9.7 SW | 230 49.0 62.3 15.3
8/31/26 - 1115 60.3 - 25 24.5 44.5 SSE | 166 5.7 13.9 S | 173 49.0 62.3 15.3
8/31/26 - 1100 59.6 - 25 24.2 44.0 S | 178 3.8 12.1 SW | 217 49.0 61.6 15.3
8/31/26 - 1045 58.9 - 27 24.7 43.9 SSE | 158 3.9 9.7 SSW | 200 49.0 61.6 15.3
8/31/26 - 1030 59.0 - 27 25.4 44.2 SSE | 166 2.9 9.0 S | 177 49.0 61.6 15.3
8/31/26 - 1015 60.1 - 27 25.9 44.8 SE | 137 3.8 10.3 SSE | 154 49.0 61.6 15.3
8/31/26 - 1000 59.0 - 28 26.0 44.3 E | 99 3.7 10.1 ESE | 102 49.0 60.5 15.3
8/31/26 - 0945 58.1 - 29 25.6 43.8 ESE | 108 3.5 7.6 ESE | 109 49.0 59.6 15.3
8/31/26 - 0930 57.6 - 28 25.0 43.4 SSE | 165 2.7 8.3 SSE | 162 49.0 58.3 15.3
8/31/26 - 0915 56.2 - 28 23.4 42.3 S | 169 3.9 10.4 SE | 137 49.0 57.5 15.3
8/31/26 - 0900 55.6 - 25 20.8 41.4 S | 170 4.3 10.9 SE | 141 49.0 56.2 15.3
8/31/26 - 0845 55.6 - 24 19.7 41.1 SSE | 168 4.7 12.2 SSW | 201 49.0 55.9 15.3
8/31/26 - 0830 55.2 - 23 17.6 40.5 S | 182 4.7 10.9 S | 180 49.0 55.7 15.3
8/31/26 - 0815 54.9 - 19 13.8 39.6 S | 191 3.1 10.7 S | 188 49.0 55.5 15.3
8/31/26 - 0800 54.3 - 19 12.7 39.1 SW | 217 5.8 15.3 SSW | 202 49.0 54.8 15.3
8/31/26 - 0745 53.8 - 21 15.3 39.3 SW | 217 6.7 14.5 SW | 214 49.0 54.2 14.8
8/31/26 - 0730 53.2 - 25 18.4 39.7 SSW | 209 5.6 12.5 SSW | 211 49.0 53.5 14.8
8/31/26 - 0715 52.5 - 24 17.2 39.1 SW | 214 6.3 14.6 SW | 219 49.0 52.8 14.8
8/31/26 - 0700 52.0 - 26 18.2 39.1 SW | 218 7.2 14.8 SW | 236 49.0 52.6 14.8
8/31/26 - 0645 51.2 - 31 21.3 39.4 SW | 219 6.2 13.9 SSW | 194 49.0 52.6 14.7
8/31/26 - 0630 51.0 - 33 23.0 39.7 SW | 230 7.4 14.7 WSW | 239 49.0 52.6 14.7
8/31/26 - 0615 50.8 - 34 23.4 39.7 SW | 222 4.8 12.2 SW | 215 49.0 52.6 12.2
8/31/26 - 0600 51.2 - 34 24.1 40.1 SW | 230 5.2 11.1 SW | 221 49.0 52.6 11.3
8/31/26 - 0545 50.8 - 36 24.5 40.0 SW | 232 3.9 10.3 SW | 229 49.0 52.6 11.3
8/31/26 - 0530 50.8 - 36 24.8 40.1 SW | 234 4.8 11.0 SW | 228 49.0 52.6 11.3
8/31/26 - 0515 50.8 - 37 25.5 40.3 SW | 232 2.1 9.0 SW | 222 49.0 52.6 11.3
8/31/26 - 0500 51.1 - 36 25.1 40.4 SW | 233 4.8 10.8 W | 263 49.0 52.6 11.3
8/31/26 - 0445 51.1 - 35 24.1 40.1 SW | 216 5.0 10.4 SW | 219 49.0 52.6 11.3
8/31/26 - 0430 51.5 - 32 22.4 39.8 SW | 229 5.3 11.3 WSW | 250 49.0 52.6 11.3
8/31/26 - 0415 51.6 - 31 22.2 39.8 WSW | 246 3.1 7.3 SW | 236 49.0 52.6 7.3
8/31/26 - 0400 51.4 - 36 25.2 40.6 WSW | 237 3.2 7.3 WSW | 246 49.0 52.6 7.3
8/31/26 - 0345 51.5 - 36 25.7 40.8 WSW | 243 2.4 5.8 WSW | 245 49.0 52.6 6.5
8/31/26 - 0330 50.4 - 38 25.7 40.2 WNW | 290 1.1 2.7 WNW | 289 49.0 52.6 6.5
8/31/26 - 0315 49.4 - 40 26.4 39.9 NW | 316 0.9 2.3 NW | 316 49.0 52.6 6.5
8/31/26 - 0300 50.0 - 40 26.4 40.2 WNW | 291 0.6 2.2 WNW | 282 49.6 52.6 6.5
8/31/26 - 0245 50.0 - 40 26.4 40.2 W | 271 0.3 1.8 W | 262 49.6 52.6 6.5
8/31/26 - 0230 50.8 - 38 26.2 40.5 WNW | 298 0.0 0.7 W | 272 50.2 52.6 6.5
8/31/26 - 0215 51.0 - 37 25.8 40.5 WNW | 286 0.3 2.3 WNW | 284 50.5 52.6 6.5
8/31/26 - 0200 51.1 - 37 25.8 40.6 W | 262 1.9 6.5 WSW | 237 50.5 52.6 6.5
8/31/26 - 0145 51.7 - 36 25.3 40.7 WNW | 285 0.7 3.0 WSW | 249 50.5 52.6 6.0
8/31/26 - 0130 50.9 - 37 25.4 40.4 W | 268 2.3 4.0 WNW | 283 50.5 52.6 6.0
8/31/26 - 0115 51.7 - 35 25.1 40.7 WSW | 251 3.3 6.0 WSW | 246 51.1 52.6 6.0
8/31/26 - 0100 52.3 - 34 24.7 40.8 WSW | 252 3.5 7.4 WSW | 244 47.6 64.0 27.2
8/31/26 - 0045 52.4 - 34 24.6 40.9 W | 263 3.0 4.9 WSW | 250 47.6 64.0 27.2
8/31/26 - 0030 53.4 - 32 24.2 41.2 NW | 304 0.3 1.9 NW | 317 47.6 64.0 27.2
8/31/26 - 0015 53.7 - 31 24.0 41.3 NE | 46 0.2 2.0 ENE | 76 47.6 64.0 27.2
8/31/26 - 0000 53.6 - 31 23.8 41.2 SW | 218 3.1 9.2 SW | 214 47.6 64.0 27.2
8/30/26 - 2345 53.6 - 30 23.2 41.1 SW | 234 7.1 13.4 SW | 222 47.6 64.0 27.2
8/30/26 - 2330 53.7 - 31 24.1 41.4 SW | 230 7.9 14.5 WSW | 251 47.6 64.0 27.2
8/30/26 - 2315 53.7 - 33 25.6 41.8 SW | 232 8.4 15.5 WSW | 247 47.6 64.0 27.2
8/30/26 - 2300 54.5 - 32 25.4 42.1 SW | 226 7.6 14.5 SW | 226 47.6 64.0 27.2
8/30/26 - 2245 54.5 - 32 25.4 42.1 SW | 225 6.7 13.9 SW | 221 47.6 64.0 27.2
8/30/26 - 2230 54.4 - 32 25.0 42.0 SW | 219 5.2 13.7 SW | 228 47.6 64.0 27.2
8/30/26 - 2215 54.4 - 33 25.9 42.2 SW | 225 7.1 16.3 SW | 235 47.6 64.0 27.2
8/30/26 - 2200 54.9 - 34 26.8 42.7 SW | 228 9.2 17.0 SW | 232 47.6 64.0 27.2
8/30/26 - 2145 54.8 - 35 27.5 42.8 SW | 227 9.4 17.1 SW | 228 47.6 64.0 27.2
8/30/26 - 2130 55.4 - 34 27.5 43.2 SW | 217 9.1 19.7 WSW | 242 47.6 64.0 27.2
8/30/26 - 2115 55.0 - 36 28.3 43.2 SW | 225 10.2 19.5 SW | 223 47.6 64.0 27.2
8/30/26 - 2100 54.8 - 38 29.6 43.5 SSW | 213 9.8 22.4 SW | 223 47.6 64.0 27.2
8/30/26 - 2045 54.8 - 39 30.2 43.7 SSW | 210 9.4 17.8 SW | 232 47.6 64.0 27.2
8/30/26 - 2030 54.3 - 38 29.5 43.3 SSW | 206 10.3 21.4 SSW | 212 47.6 64.0 27.2
8/30/26 - 2015 54.2 - 34 26.6 42.3 SSW | 201 11.4 20.9 S | 191 47.6 64.0 27.2
8/30/26 - 2000 53.9 - 30 23.2 41.2 SSW | 201 11.4 23.5 SSW | 210 47.6 64.0 27.2
Max 60.3 48.6 68 35.9 46.5 - 17.3 36.0 - 51.1 64.0 36.0
Avg 50.4 41.8 42 27.2 40.7 - 6.9 18.1 - - - -
Min 40.4 33.5 19 12.7 35.6 - 0.0 0.7 - 40.3 46.1 6.0